createdAt,value
2022-07-29T00:02:28.638Z,51.07
2022-07-29T00:05:14.658Z,51.12
2022-07-29T00:08:00.796Z,51.19
2022-07-29T00:10:46.942Z,51.30
2022-07-29T00:13:33.042Z,51.12
2022-07-29T00:16:18.933Z,51.20
2022-07-29T00:19:04.839Z,51.17
2022-07-29T00:21:51.062Z,51.35
2022-07-29T00:24:37.203Z,51.23
2022-07-29T00:27:23.340Z,51.24
2022-07-29T00:30:09.810Z,51.26
2022-07-29T00:32:55.508Z,51.14
2022-07-29T00:35:47.257Z,51.25
2022-07-29T00:38:32.925Z,51.20
2022-07-29T00:41:19.382Z,51.27
2022-07-29T00:44:05.219Z,51.16
2022-07-29T00:46:51.671Z,51.22
2022-07-29T00:49:39.931Z,51.10
2022-07-29T00:52:26.105Z,51.27
2022-07-29T00:55:15.683Z,51.24
2022-07-29T00:58:01.654Z,51.27
2022-07-29T01:00:47.527Z,51.33
2022-07-29T01:03:33.356Z,51.41
2022-07-29T01:06:20.266Z,51.33
2022-07-29T01:09:06.869Z,51.43
2022-07-29T01:11:53.130Z,51.41
2022-07-29T01:14:39.377Z,51.34
2022-07-29T01:17:28.902Z,51.33
2022-07-29T01:20:37.626Z,51.49
2022-07-29T01:23:53.911Z,51.74
2022-07-29T01:26:48.861Z,51.51
2022-07-29T01:29:40.457Z,51.56
2022-07-29T01:32:30.408Z,51.54
2022-07-29T01:35:26.243Z,51.55
2022-07-29T01:38:21.935Z,51.49
2022-07-29T01:41:14.139Z,51.43
2022-07-29T01:44:03.992Z,51.41
2022-07-29T01:46:55.747Z,51.38
2022-07-29T01:49:47.999Z,51.32
2022-07-29T01:52:57.474Z,51.39
2022-07-29T01:55:46.010Z,51.27
2022-07-29T01:58:32.951Z,51.32
2022-07-29T02:01:19.206Z,51.31
2022-07-29T02:04:07.320Z,51.26
2022-07-29T02:06:54.483Z,51.35
2022-07-29T02:09:40.926Z,51.37
2022-07-29T02:12:29.095Z,51.31
2022-07-29T02:15:15.885Z,51.26
2022-07-29T02:18:17.248Z,51.38
2022-07-29T02:21:04.630Z,51.31
2022-07-29T02:23:54.056Z,51.37
2022-07-29T02:26:41.732Z,51.40
2022-07-29T02:29:29.278Z,51.32
2022-07-29T02:32:15.773Z,51.48
2022-07-29T02:35:02.717Z,51.27
2022-07-29T02:38:12.673Z,51.25
2022-07-29T02:41:00.246Z,51.22
2022-07-29T02:43:49.311Z,51.26
2022-07-29T02:46:37.201Z,51.31
2022-07-29T02:49:36.778Z,51.37
2022-07-29T02:52:28.743Z,51.25
2022-07-29T02:55:25.441Z,51.29
2022-07-29T02:58:34.848Z,51.26
2022-07-29T03:01:25.578Z,51.29
2022-07-29T03:04:13.498Z,51.36
2022-07-29T03:07:00.757Z,51.16
2022-07-29T03:09:46.843Z,51.27
2022-07-29T03:12:32.795Z,51.54
2022-07-29T03:15:19.864Z,51.45
2022-07-29T03:18:06.967Z,51.49
2022-07-29T03:20:53.213Z,51.50
2022-07-29T03:23:45.349Z,51.58
2022-07-29T03:26:32.386Z,51.58
2022-07-29T03:29:18.170Z,51.59
2022-07-29T03:32:08.143Z,51.75
2022-07-29T03:34:54.533Z,51.68
2022-07-29T03:37:40.204Z,51.78
2022-07-29T03:40:45.861Z,51.93
2022-07-29T03:43:34.323Z,51.67
2022-07-29T03:46:22.328Z,51.80
2022-07-29T03:49:09.586Z,51.71
2022-07-29T03:51:55.975Z,51.66
2022-07-29T03:54:41.884Z,51.93
2022-07-29T03:57:29.643Z,51.98
2022-07-29T04:00:19.707Z,52.06
2022-07-29T04:03:10.656Z,51.91
2022-07-29T04:06:09.316Z,52.09
2022-07-29T04:08:55.200Z,51.86
2022-07-29T04:12:01.773Z,51.75
2022-07-29T04:14:49.824Z,51.75
2022-07-29T04:17:36.298Z,51.78
2022-07-29T04:20:22.941Z,51.81
2022-07-29T04:23:09.165Z,51.76
2022-07-29T04:25:55.197Z,51.72
2022-07-29T04:28:41.510Z,51.99
2022-07-29T04:31:27.629Z,51.75
2022-07-29T04:34:14.091Z,52.02
2022-07-29T04:37:00.155Z,51.74
2022-07-29T04:39:46.130Z,51.76
2022-07-29T04:42:31.857Z,51.84
2022-07-29T04:45:22.654Z,51.77
2022-07-29T04:48:09.078Z,52.00
2022-07-29T04:50:54.797Z,51.90
2022-07-29T04:53:40.487Z,52.05
2022-07-29T04:56:26.535Z,51.99
2022-07-29T04:59:12.255Z,52.15
2022-07-29T05:01:59.557Z,52.07
2022-07-29T05:04:45.573Z,52.20
2022-07-29T05:07:31.303Z,52.20
2022-07-29T05:10:16.958Z,52.26
2022-07-29T05:13:02.794Z,52.39
2022-07-29T05:15:48.736Z,52.44
2022-07-29T05:18:34.555Z,52.43
2022-07-29T05:21:20.389Z,52.47
2022-07-29T05:24:06.562Z,52.37
2022-07-29T05:26:52.462Z,52.49
2022-07-29T05:29:44.048Z,52.57
2022-07-29T05:32:31.488Z,52.52
2022-07-29T05:35:17.883Z,52.41
2022-07-29T05:38:04.430Z,52.48
2022-07-29T05:40:53.590Z,52.25
2022-07-29T05:43:39.403Z,52.36
2022-07-29T05:46:25.406Z,52.67
2022-07-29T05:49:11.676Z,52.21
2022-07-29T05:52:14.201Z,52.32
2022-07-29T05:55:02.227Z,52.28
2022-07-29T05:57:48.224Z,52.25
2022-07-29T06:00:33.951Z,52.30
2022-07-29T06:03:19.849Z,52.32
2022-07-29T06:06:07.084Z,52.47
2022-07-29T06:08:53.188Z,52.43
2022-07-29T06:11:38.839Z,52.28
2022-07-29T06:14:27.568Z,52.34
2022-07-29T06:17:13.349Z,52.57
2022-07-29T06:19:59.421Z,52.35
2022-07-29T06:22:45.196Z,52.45
2022-07-29T06:25:31.379Z,52.52
2022-07-29T06:28:17.424Z,52.52
2022-07-29T06:31:03.448Z,52.56
2022-07-29T06:33:49.266Z,52.67
2022-07-29T06:36:39.733Z,52.83
2022-07-29T06:39:27.172Z,52.53
2022-07-29T06:42:13.140Z,52.46
2022-07-29T06:45:00.741Z,52.60
2022-07-29T06:47:46.655Z,52.61
2022-07-29T06:50:32.936Z,52.46
2022-07-29T06:53:18.581Z,52.49
2022-07-29T06:56:05.453Z,52.35
2022-07-29T06:58:51.605Z,52.31
2022-07-29T07:01:39.198Z,52.22
2022-07-29T07:04:25.165Z,52.29
2022-07-29T07:07:11.102Z,52.19
2022-07-29T07:09:57.093Z,52.12
2022-07-29T07:12:42.787Z,52.00
2022-07-29T07:15:38.974Z,51.89
2022-07-29T07:18:26.071Z,51.99
2022-07-29T07:21:12.428Z,51.88
2022-07-29T07:24:07.482Z,51.93
2022-07-29T07:26:53.374Z,51.79
2022-07-29T07:29:44.230Z,51.68
2022-07-29T07:32:30.635Z,51.55
2022-07-29T07:35:16.911Z,51.58
2022-07-29T07:38:03.023Z,51.60
2022-07-29T07:40:49.084Z,51.41
2022-07-29T07:43:35.047Z,51.27
2022-07-29T07:46:21.252Z,51.06
2022-07-29T07:49:07.379Z,50.96
2022-07-29T07:51:53.648Z,50.86
2022-07-29T07:54:39.494Z,50.67
2022-07-29T07:57:25.402Z,50.77
2022-07-29T08:00:12.833Z,50.47
2022-07-29T08:02:59.048Z,50.57
2022-07-29T08:05:45.294Z,50.37
2022-07-29T08:08:31.190Z,50.37
2022-07-29T08:11:16.896Z,50.27
2022-07-29T08:14:02.789Z,50.28
2022-07-29T08:16:49.011Z,50.20
2022-07-29T08:19:35.200Z,49.84
2022-07-29T08:22:21.014Z,49.92
2022-07-29T08:25:07.211Z,49.52
2022-07-29T08:27:52.866Z,49.64
2022-07-29T08:30:38.799Z,49.33
2022-07-29T08:33:24.850Z,49.42
2022-07-29T08:36:11.068Z,49.52
2022-07-29T08:38:57.638Z,49.19
2022-07-29T08:41:57.485Z,49.17
2022-07-29T08:44:43.927Z,49.45
2022-07-29T08:47:29.908Z,49.32
2022-07-29T08:50:15.938Z,48.91
2022-07-29T08:53:01.822Z,49.07
2022-07-29T08:55:50.730Z,49.19
2022-07-29T08:58:38.568Z,49.01
2022-07-29T09:01:36.064Z,49.02
2022-07-29T09:04:32.489Z,48.66
2022-07-29T09:07:20.129Z,48.63
2022-07-29T09:10:07.221Z,48.53
2022-07-29T09:12:53.517Z,48.46
2022-07-29T09:15:39.637Z,48.44
2022-07-29T09:18:45.802Z,48.25
2022-07-29T09:22:00.387Z,47.72
2022-07-29T09:24:48.634Z,47.72
2022-07-29T09:27:35.358Z,47.95
2022-07-29T09:30:25.513Z,47.78
2022-07-29T09:33:22.122Z,47.21
2022-07-29T09:36:12.913Z,47.09
2022-07-29T09:39:04.797Z,46.86
2022-07-29T09:41:53.875Z,46.86
2022-07-29T09:44:51.005Z,46.77
2022-07-29T09:47:48.844Z,46.85
2022-07-29T09:50:42.276Z,46.69
2022-07-29T09:53:38.953Z,46.51
2022-07-29T09:56:41.553Z,45.96
2022-07-29T09:59:29.215Z,46.20
2022-07-29T10:02:23.502Z,46.29
2022-07-29T10:05:36.248Z,45.65
2022-07-29T10:08:27.928Z,45.80
2022-07-29T10:11:15.885Z,45.82
2022-07-29T10:14:04.616Z,45.66
2022-07-29T10:16:50.435Z,45.92
2022-07-29T10:19:37.967Z,45.69
2022-07-29T10:22:51.441Z,45.41
2022-07-29T10:25:32.862Z,45.67
2022-07-29T10:28:27.488Z,45.54
2022-07-29T10:31:35.299Z,45.08
2022-07-29T10:34:58.290Z,45.15
2022-07-29T10:38:06.723Z,44.90
2022-07-29T10:41:27.262Z,44.94
2022-07-29T10:44:19.376Z,45.00
2022-07-29T10:47:27.519Z,44.86
2022-07-29T10:50:17.156Z,44.72
2022-07-29T10:53:04.902Z,45.53
2022-07-29T10:55:57.718Z,46.26
2022-07-29T10:58:44.575Z,45.89
2022-07-29T11:01:40.061Z,46.11
2022-07-29T11:04:44.785Z,46.00
2022-07-29T11:07:45.789Z,45.42
2022-07-29T11:10:33.312Z,45.02
2022-07-29T11:13:51.544Z,44.65
2022-07-29T11:17:03.132Z,44.07
2022-07-29T11:20:31.270Z,43.60
2022-07-29T11:23:40.414Z,44.63
2022-07-29T11:26:28.927Z,44.56
2022-07-29T11:29:25.536Z,44.35
2022-07-29T11:32:22.737Z,44.06
2022-07-29T11:35:19.281Z,43.88
2022-07-29T11:38:32.038Z,43.65
2022-07-29T11:41:28.757Z,43.73
2022-07-29T11:44:18.030Z,43.24
2022-07-29T11:47:04.697Z,43.12
2022-07-29T11:49:53.548Z,42.97
2022-07-29T11:52:49.794Z,42.62
2022-07-29T11:55:50.794Z,42.32
2022-07-29T11:58:38.486Z,42.26
2022-07-29T12:01:25.604Z,42.09
2022-07-29T12:04:14.058Z,42.24
2022-07-29T12:07:00.686Z,41.88
2022-07-29T12:09:53.893Z,40.67
2022-07-29T12:12:43.026Z,41.88
2022-07-29T12:15:45.579Z,41.46
2022-07-29T12:18:33.244Z,41.09
2022-07-29T12:21:19.121Z,40.95
2022-07-29T12:24:11.635Z,40.84
2022-07-29T12:26:58.978Z,40.74
2022-07-29T12:29:47.979Z,40.53
2022-07-29T12:32:40.350Z,40.50
2022-07-29T12:35:26.686Z,40.27
2022-07-29T12:38:13.450Z,40.39
2022-07-29T12:40:59.647Z,40.28
2022-07-29T12:43:55.790Z,40.15
2022-07-29T12:46:41.610Z,40.19
2022-07-29T12:49:27.857Z,39.97
2022-07-29T12:52:33.440Z,38.78
2022-07-29T12:55:42.642Z,39.23
2022-07-29T12:58:40.302Z,39.16
2022-07-29T13:01:28.304Z,39.25
2022-07-29T13:04:28.787Z,39.52
2022-07-29T13:07:15.509Z,39.51
2022-07-29T13:10:15.907Z,37.90
2022-07-29T13:13:10.672Z,39.39
2022-07-29T13:16:09.203Z,38.58
2022-07-29T13:19:06.526Z,38.68
2022-07-29T13:21:52.257Z,39.02
2022-07-29T13:24:48.046Z,38.44
2022-07-29T13:27:37.331Z,38.77
2022-07-29T13:30:24.295Z,38.34
2022-07-29T13:33:10.412Z,38.11
2022-07-29T13:35:56.309Z,37.70
2022-07-29T13:38:42.349Z,37.13
2022-07-29T13:41:28.625Z,37.04
2022-07-29T13:44:14.560Z,36.20
2022-07-29T13:47:01.543Z,35.92
2022-07-29T13:49:47.717Z,35.91
2022-07-29T13:52:34.556Z,35.61
2022-07-29T13:55:20.822Z,35.34
2022-07-29T13:58:07.008Z,35.00
2022-07-29T14:00:53.146Z,35.04
2022-07-29T14:03:45.737Z,34.52
2022-07-29T14:06:36.120Z,33.88
2022-07-29T14:09:26.711Z,33.73
2022-07-29T14:12:12.991Z,33.74
2022-07-29T14:14:59.174Z,33.21
2022-07-29T14:17:45.142Z,32.40
2022-07-29T14:20:32.268Z,31.91
2022-07-29T14:23:20.166Z,31.22
2022-07-29T14:26:08.751Z,31.17
2022-07-29T14:28:59.154Z,30.30
2022-07-29T14:31:45.046Z,29.96
2022-07-29T14:34:31.274Z,29.71
2022-07-29T14:37:17.440Z,29.50
2022-07-29T14:40:05.169Z,29.28
2022-07-29T14:42:50.850Z,28.98
2022-07-29T14:45:37.145Z,28.91
2022-07-29T14:48:23.129Z,28.71
2022-07-29T14:51:09.117Z,28.46
2022-07-29T14:53:55.132Z,28.76
2022-07-29T14:56:46.530Z,29.05
2022-07-29T14:59:34.346Z,29.31
2022-07-29T15:02:20.708Z,29.82
2022-07-29T15:05:07.408Z,30.45
2022-07-29T15:07:53.546Z,30.42
2022-07-29T15:10:39.665Z,30.84
2022-07-29T15:13:26.376Z,31.48
2022-07-29T15:16:12.747Z,31.52
2022-07-29T15:19:01.125Z,31.59
2022-07-29T15:21:48.762Z,31.94
2022-07-29T15:24:46.250Z,32.00
2022-07-29T15:27:32.525Z,32.39
2022-07-29T15:30:32.529Z,32.49
2022-07-29T15:33:20.586Z,32.32
2022-07-29T15:36:06.817Z,32.86
2022-07-29T15:38:55.968Z,33.29
2022-07-29T15:41:41.893Z,33.01
2022-07-29T15:44:27.730Z,33.25
2022-07-29T15:47:13.721Z,33.17
2022-07-29T15:50:02.250Z,32.83
2022-07-29T15:52:48.341Z,33.11
2022-07-29T15:55:34.435Z,33.09
2022-07-29T15:58:21.742Z,32.67
2022-07-29T16:01:07.448Z,32.61
2022-07-29T16:03:53.975Z,32.95
2022-07-29T16:06:40.377Z,32.80
2022-07-29T16:09:26.974Z,32.90
2022-07-29T16:12:15.354Z,33.42
2022-07-29T16:15:03.961Z,33.28
2022-07-29T16:17:53.429Z,33.28
2022-07-29T16:20:39.338Z,33.36
2022-07-29T16:23:25.334Z,33.29
2022-07-29T16:26:12.041Z,33.44
2022-07-29T16:28:58.325Z,33.58
2022-07-29T16:31:44.578Z,33.61
2022-07-29T16:34:30.730Z,33.68
2022-07-29T16:37:16.653Z,33.63
2022-07-29T16:40:04.716Z,33.71
2022-07-29T16:42:50.452Z,33.46
2022-07-29T16:45:41.883Z,33.75
2022-07-29T16:48:33.810Z,33.63
2022-07-29T16:51:22.204Z,33.91
2022-07-29T16:54:10.785Z,33.92
2022-07-29T16:56:57.304Z,34.10
2022-07-29T16:59:43.948Z,34.30
2022-07-29T17:02:30.313Z,34.38
2022-07-29T17:05:16.861Z,34.49
2022-07-29T17:08:03.129Z,34.80
2022-07-29T17:10:49.617Z,34.76
2022-07-29T17:13:35.388Z,34.69
2022-07-29T17:16:24.807Z,34.67
2022-07-29T17:19:10.859Z,34.47
2022-07-29T17:22:03.546Z,34.82
2022-07-29T17:24:56.207Z,34.96
2022-07-29T17:27:43.437Z,34.54
2022-07-29T17:30:30.097Z,34.85
2022-07-29T17:33:16.298Z,34.86
2022-07-29T17:36:20.892Z,34.48
2022-07-29T17:39:08.875Z,34.89
2022-07-29T17:41:54.894Z,35.29
2022-07-29T17:44:41.570Z,35.25
2022-07-29T17:47:27.434Z,35.98
2022-07-29T17:50:13.767Z,35.80
2022-07-29T17:53:00.032Z,36.14
2022-07-29T17:55:47.692Z,36.36
2022-07-29T17:58:34.121Z,36.37
2022-07-29T18:01:21.013Z,36.72
2022-07-29T18:04:10.454Z,36.92
2022-07-29T18:06:56.585Z,37.06
2022-07-29T18:09:42.698Z,37.33
2022-07-29T18:12:29.003Z,37.49
2022-07-29T18:15:15.495Z,37.52
2022-07-29T18:18:01.463Z,37.68
2022-07-29T18:20:47.927Z,37.89
2022-07-29T18:23:33.925Z,37.73
2022-07-29T18:26:20.112Z,38.06
2022-07-29T18:29:06.167Z,38.15
2022-07-29T18:31:55.834Z,38.38
2022-07-29T18:34:42.140Z,38.25
2022-07-29T18:38:00.284Z,38.86
2022-07-29T18:40:36.141Z,38.96
2022-07-29T18:43:22.203Z,39.03
2022-07-29T18:46:08.304Z,38.93
2022-07-29T18:48:54.598Z,39.30
2022-07-29T18:51:41.613Z,39.17
2022-07-29T18:54:28.524Z,39.55
2022-07-29T18:57:55.391Z,39.52
2022-07-29T19:00:24.567Z,39.90
2022-07-29T19:03:10.872Z,39.91
2022-07-29T19:05:56.879Z,40.03
2022-07-29T19:08:42.795Z,39.86
2022-07-29T19:11:29.026Z,40.32
2022-07-29T19:14:15.188Z,40.33
2022-07-29T19:17:01.275Z,40.14
2022-07-29T19:19:47.436Z,40.18
2022-07-29T19:22:33.549Z,40.41
2022-07-29T19:25:19.710Z,40.41
2022-07-29T19:28:05.833Z,40.83
2022-07-29T19:30:52.223Z,40.59
2022-07-29T19:33:38.549Z,40.63
2022-07-29T19:36:24.775Z,41.19
2022-07-29T19:39:11.534Z,40.79
2022-07-29T19:42:02.911Z,40.82
2022-07-29T19:44:49.630Z,40.79
2022-07-29T19:47:35.950Z,40.77
2022-07-29T19:50:22.924Z,41.04
2022-07-29T19:53:08.877Z,41.02
2022-07-29T19:55:55.071Z,41.05
2022-07-29T19:58:41.327Z,41.18
2022-07-29T20:01:27.573Z,41.38
2022-07-29T20:04:13.669Z,41.11
2022-07-29T20:07:01.629Z,41.10
2022-07-29T20:09:49.422Z,41.41
2022-07-29T20:12:37.577Z,41.21
2022-07-29T20:15:23.615Z,41.36
2022-07-29T20:18:09.652Z,41.47
2022-07-29T20:20:57.550Z,41.57
2022-07-29T20:23:43.585Z,41.68
2022-07-29T20:26:29.961Z,41.75
2022-07-29T20:29:16.207Z,42.00
2022-07-29T20:32:02.577Z,41.95
2022-07-29T20:34:48.638Z,42.19
2022-07-29T20:37:34.662Z,42.13
2022-07-29T20:40:40.080Z,42.31
2022-07-29T20:43:27.213Z,42.02
2022-07-29T20:46:13.321Z,42.45
2022-07-29T20:48:59.643Z,42.54
2022-07-29T20:51:45.487Z,42.39
2022-07-29T20:54:31.541Z,42.36
2022-07-29T20:57:18.086Z,42.35
2022-07-29T21:00:25.171Z,42.37
2022-07-29T21:03:11.225Z,42.51
2022-07-29T21:05:57.220Z,42.65
2022-07-29T21:08:43.414Z,42.86
2022-07-29T21:11:43.770Z,42.60
2022-07-29T21:14:37.466Z,43.11
2022-07-29T21:17:23.525Z,42.98
2022-07-29T21:20:09.900Z,42.87
2022-07-29T21:22:56.135Z,43.07
2022-07-29T21:25:42.229Z,43.11
2022-07-29T21:28:29.393Z,43.26
2022-07-29T21:31:16.997Z,43.26
2022-07-29T21:34:02.978Z,43.64
2022-07-29T21:36:51.954Z,43.31
2022-07-29T21:39:38.882Z,43.42
2022-07-29T21:42:24.675Z,43.23
2022-07-29T21:45:10.811Z,43.60
2022-07-29T21:47:57.886Z,43.48
2022-07-29T21:50:44.353Z,43.66
2022-07-29T21:53:30.747Z,43.79
2022-07-29T21:56:16.687Z,43.71
2022-07-29T21:59:04.097Z,43.71
2022-07-29T22:01:56.132Z,43.81
2022-07-29T22:04:42.307Z,43.79
2022-07-29T22:07:56.563Z,44.14
2022-07-29T22:10:35.791Z,44.11
2022-07-29T22:13:21.591Z,44.16
2022-07-29T22:16:09.535Z,43.97
2022-07-29T22:18:55.716Z,44.12
2022-07-29T22:21:42.185Z,44.22
2022-07-29T22:24:27.967Z,44.23
2022-07-29T22:27:14.005Z,44.29
2022-07-29T22:29:59.868Z,44.34
2022-07-29T22:32:45.803Z,44.16
2022-07-29T22:35:32.038Z,44.07
2022-07-29T22:38:18.673Z,44.52
2022-07-29T22:41:04.639Z,44.38
2022-07-29T22:43:50.469Z,44.69
2022-07-29T22:46:37.839Z,44.46
2022-07-29T22:49:23.773Z,44.66
2022-07-29T22:52:10.093Z,44.72
2022-07-29T22:54:55.917Z,44.83
2022-07-29T22:57:42.354Z,45.01
2022-07-29T23:00:28.150Z,44.90
2022-07-29T23:03:14.214Z,44.88
2022-07-29T23:06:00.543Z,44.96
2022-07-29T23:08:46.537Z,45.20
2022-07-29T23:11:36.012Z,45.31
2022-07-29T23:14:24.376Z,45.33
2022-07-29T23:17:10.116Z,45.24
2022-07-29T23:19:55.771Z,45.41
2022-07-29T23:22:42.255Z,45.43
2022-07-29T23:25:28.122Z,45.46
2022-07-29T23:28:14.372Z,45.48
2022-07-29T23:31:00.246Z,45.23
2022-07-29T23:33:46.143Z,45.41
2022-07-29T23:36:32.233Z,45.55
2022-07-29T23:39:18.166Z,45.52
2022-07-29T23:42:04.938Z,45.71
2022-07-29T23:44:51.091Z,45.73
2022-07-29T23:47:37.092Z,45.85
2022-07-29T23:50:23.300Z,45.78
2022-07-29T23:53:12.223Z,45.69
2022-07-29T23:55:58.508Z,45.72
2022-07-29T23:58:44.243Z,45.67
